Time;durP1;ratioP1;P1;durP2;ratioP2;P2;SDS_P1;SDS_P2;PMS_P1;PMS_P2;Temp;Humidity;BMP_temperature;BMP_pressure;BME280_temperature;BME280_humidity;BME280_pressure;Samples;Min_cycle;Max_cycle;Signal;HPM_P1;HPM_P2
2023/04/26 00:02:23;;;;;;;7.07;4.70;;;10.80;84.60;;;;;;5013998;28;20499;-66
2023/04/26 00:04:54;;;;;;;6.57;4.50;;;10.80;84.70;;;;;;5013861;28;20096;-66
2023/04/26 00:07:24;;;;;;;10.88;4.43;;;10.80;84.50;;;;;;5014161;28;20064;-66
2023/04/26 00:09:53;;;;;;;6.20;4.22;;;10.80;84.50;;;;;;5013838;28;20079;-65
2023/04/26 00:12:19;;;;;;;9.18;4.75;;;10.80;84.70;;;;;;5013757;28;20499;-66
2023/04/26 00:14:45;;;;;;;8.02;4.65;;;10.70;84.60;;;;;;5013941;28;20014;-65
2023/04/26 00:17:10;;;;;;;10.38;4.97;;;10.70;84.50;;;;;;5013874;28;20550;-66
2023/04/26 00:19:37;;;;;;;8.57;5.00;;;10.70;84.60;;;;;;5013674;28;20116;-65
2023/04/26 00:22:04;;;;;;;8.88;5.07;;;10.70;84.90;;;;;;5013830;28;20029;-66
2023/04/26 00:24:30;;;;;;;7.45;4.45;;;10.60;85.00;;;;;;5013727;28;20052;-65
2023/04/26 00:26:55;;;;;;;8.68;5.32;;;10.60;85.10;;;;;;5013222;28;20038;-65
2023/04/26 00:29:21;;;;;;;7.88;4.65;;;10.60;85.10;;;;;;5013868;28;20053;-66
2023/04/26 00:31:47;;;;;;;10.00;5.00;;;10.60;85.30;;;;;;5012815;28;20502;-66
2023/04/26 00:34:13;;;;;;;16.58;5.20;;;10.60;85.30;;;;;;5013624;28;20124;-66
2023/04/26 00:36:38;;;;;;;7.72;4.78;;;10.60;85.40;;;;;;5012823;28;20038;-66
2023/04/26 00:39:04;;;;;;;10.68;5.28;;;10.50;85.50;;;;;;5013306;28;20034;-65
2023/04/26 00:41:30;;;;;;;8.80;5.10;;;10.50;85.50;;;;;;5013143;28;20026;-67
2023/04/26 00:43:55;;;;;;;9.18;4.80;;;10.50;85.50;;;;;;5013485;28;20124;-66
2023/04/26 00:46:21;;;;;;;9.07;5.00;;;10.50;85.80;;;;;;5013401;28;20038;-65
2023/04/26 00:48:47;;;;;;;7.30;4.72;;;10.50;86.00;;;;;;5013452;28;20096;-66
2023/04/26 00:51:14;;;;;;;9.07;4.50;;;10.50;85.90;;;;;;5012772;28;20518;-65
2023/04/26 00:53:40;;;;;;;8.57;4.78;;;10.50;86.00;;;;;;5012885;28;20133;-65
2023/04/26 00:56:07;;;;;;;12.27;4.85;;;10.40;85.90;;;;;;5013016;28;20030;-65
2023/04/26 00:58:33;;;;;;;7.68;4.63;;;10.40;85.80;;;;;;5013385;28;20048;-66
2023/04/26 01:00:59;;;;;;;7.70;5.22;;;10.40;86.00;;;;;;5013132;28;20471;-65
2023/04/26 01:03:25;;;;;;;8.90;5.38;;;10.30;85.90;;;;;;5013427;28;20026;-66
2023/04/26 01:05:52;;;;;;;7.70;4.38;;;10.40;86.00;;;;;;5012829;28;20040;-66
2023/04/26 01:08:19;;;;;;;11.07;5.20;;;10.30;86.10;;;;;;5013062;28;20236;-65
2023/04/26 01:10:47;;;;;;;7.20;4.60;;;10.30;86.10;;;;;;5012727;28;20026;-66
2023/04/26 01:13:13;;;;;;;8.43;5.07;;;10.30;86.20;;;;;;5013233;28;20024;-65
2023/04/26 01:15:45;;;;;;;7.05;4.72;;;10.20;86.40;;;;;;5013128;28;20467;-66
2023/04/26 01:18:12;;;;;;;11.27;5.65;;;10.20;86.50;;;;;;5013100;28;20105;-66
2023/04/26 01:20:39;;;;;;;9.77;5.20;;;10.20;86.60;;;;;;5012922;28;20025;-66
2023/04/26 01:23:05;;;;;;;9.40;4.68;;;10.20;86.50;;;;;;5013022;28;20105;-66
2023/04/26 01:25:31;;;;;;;9.93;4.32;;;10.20;86.50;;;;;;5012853;28;20049;-66
2023/04/26 01:27:56;;;;;;;9.63;5.38;;;10.20;86.50;;;;;;5012957;28;20033;-66
2023/04/26 01:30:22;;;;;;;9.52;5.20;;;10.20;86.60;;;;;;5012956;28;20153;-66
2023/04/26 01:32:48;;;;;;;9.70;4.82;;;10.20;86.80;;;;;;5013395;28;20455;-66
2023/04/26 01:35:13;;;;;;;8.88;4.43;;;10.10;86.90;;;;;;5012605;28;20491;-66
2023/04/26 01:37:39;;;;;;;10.30;5.05;;;10.10;86.90;;;;;;5012626;28;20414;-65
2023/04/26 01:40:05;;;;;;;7.35;4.30;;;10.10;86.80;;;;;;5012629;28;20022;-66
2023/04/26 01:42:31;;;;;;;8.85;4.82;;;10.10;86.40;;;;;;5012763;28;20073;-66
2023/04/26 01:44:57;;;;;;;9.52;4.55;;;10.00;87.00;;;;;;5012939;28;20053;-66
2023/04/26 01:47:23;;;;;;;8.68;4.80;;;10.00;86.30;;;;;;5012445;28;20038;-66
2023/04/26 01:49:49;;;;;;;6.97;5.10;;;10.00;86.60;;;;;;5012948;28;20052;-66
2023/04/26 01:52:15;;;;;;;8.93;5.13;;;10.00;86.60;;;;;;5012470;28;20026;-66
2023/04/26 01:54:41;;;;;;;10.80;5.50;;;10.00;86.50;;;;;;5012438;28;20061;-66
2023/04/26 01:57:06;;;;;;;7.55;5.10;;;10.00;86.50;;;;;;5012697;28;20062;-66
2023/04/26 01:59:32;;;;;;;6.70;5.03;;;9.90;86.60;;;;;;5012637;28;20026;-65
2023/04/26 02:01:57;;;;;;;9.43;5.32;;;9.90;86.50;;;;;;5012616;28;20058;-66
2023/04/26 02:04:24;;;;;;;9.77;5.25;;;9.90;86.40;;;;;;5015082;28;20374;-65
2023/04/26 02:06:50;;;;;;;8.57;5.40;;;9.90;86.40;;;;;;5016001;28;20396;-65
2023/04/26 02:09:17;;;;;;;11.05;6.05;;;9.90;86.60;;;;;;5016205;28;20478;-66
2023/04/26 02:11:42;;;;;;;8.30;5.13;;;9.90;86.60;;;;;;5015974;28;20084;-66
2023/04/26 02:14:08;;;;;;;11.95;6.07;;;9.90;86.60;;;;;;5016268;28;20061;-66
2023/04/26 02:16:34;;;;;;;10.10;5.88;;;9.80;86.50;;;;;;5016257;28;20026;-66
2023/04/26 02:18:59;;;;;;;7.90;5.13;;;9.80;86.50;;;;;;5015990;28;20025;-65
2023/04/26 02:21:27;;;;;;;14.00;6.05;;;9.80;86.40;;;;;;5015937;28;20352;-65
2023/04/26 02:23:52;;;;;;;10.70;4.97;;;9.80;86.60;;;;;;5015774;28;20022;-65
2023/04/26 02:26:18;;;;;;;9.95;5.38;;;9.80;86.60;;;;;;5015884;28;20042;-66
2023/04/26 02:28:43;;;;;;;8.38;5.60;;;9.80;86.30;;;;;;5014692;28;20022;-65
2023/04/26 02:31:10;;;;;;;10.55;5.63;;;9.80;86.70;;;;;;5015972;28;20025;-65
2023/04/26 02:33:35;;;;;;;7.82;5.40;;;9.80;87.00;;;;;;5015326;28;20067;-66
2023/04/26 02:36:05;;;;;;;11.55;5.18;;;9.70;87.00;;;;;;5015744;28;20461;-66
2023/04/26 02:38:33;;;;;;;6.80;5.40;;;9.70;86.90;;;;;;5015258;28;20037;-66
2023/04/26 02:41:00;;;;;;;10.85;5.88;;;9.70;87.10;;;;;;5016278;28;20057;-65
2023/04/26 02:43:26;;;;;;;6.07;4.85;;;9.70;87.10;;;;;;5015589;28;20076;-66
2023/04/26 02:45:52;;;;;;;11.10;5.53;;;9.60;87.30;;;;;;5014179;28;20065;-65
2023/04/26 02:48:18;;;;;;;7.88;5.03;;;9.60;87.10;;;;;;5015542;28;20105;-66
2023/04/26 02:50:43;;;;;;;6.85;5.22;;;9.60;87.10;;;;;;5015517;28;20030;-65
2023/04/26 02:53:09;;;;;;;7.90;5.07;;;9.60;87.20;;;;;;5015236;28;20104;-66
2023/04/26 02:55:36;;;;;;;7.40;4.75;;;9.60;87.40;;;;;;5014251;28;20534;-66
2023/04/26 02:58:02;;;;;;;10.00;4.70;;;9.50;87.40;;;;;;5015153;28;20034;-66
2023/04/26 03:00:27;;;;;;;6.65;4.65;;;9.60;87.40;;;;;;5015431;28;20144;-66
2023/04/26 03:02:53;;;;;;;8.48;4.97;;;9.50;87.30;;;;;;5015194;28;20061;-66
2023/04/26 03:05:19;;;;;;;9.50;5.00;;;9.50;87.40;;;;;;5015464;28;20025;-67
2023/04/26 03:07:45;;;;;;;8.07;5.30;;;9.50;87.70;;;;;;5014798;28;20034;-66
2023/04/26 03:10:10;;;;;;;6.57;4.60;;;9.50;87.70;;;;;;5014804;28;20478;-66
2023/04/26 03:12:36;;;;;;;8.85;4.68;;;9.50;87.80;;;;;;5015589;28;20026;-66
2023/04/26 03:15:02;;;;;;;12.20;5.40;;;9.50;87.90;;;;;;5013830;28;20121;-66
2023/04/26 03:17:28;;;;;;;6.28;4.72;;;9.50;88.20;;;;;;5013488;28;20076;-67
2023/04/26 03:19:54;;;;;;;9.45;5.10;;;9.50;88.30;;;;;;5014873;28;20033;-66
2023/04/26 03:22:20;;;;;;;7.85;5.28;;;9.40;88.30;;;;;;5014507;28;20025;-66
2023/04/26 03:24:46;;;;;;;11.15;5.00;;;9.50;88.40;;;;;;5014950;28;20018;-67
2023/04/26 03:27:12;;;;;;;8.77;4.88;;;9.40;88.50;;;;;;5014945;28;20034;-66
2023/04/26 03:29:38;;;;;;;10.75;4.53;;;9.40;88.40;;;;;;5014619;28;20108;-66
2023/04/26 03:32:04;;;;;;;8.65;4.43;;;9.40;88.50;;;;;;5014583;28;20029;-66
2023/04/26 03:34:29;;;;;;;9.88;4.80;;;9.40;88.90;;;;;;5013351;28;20029;-66
2023/04/26 03:36:55;;;;;;;8.52;4.65;;;9.40;88.40;;;;;;5014283;28;20045;-66
2023/04/26 03:39:21;;;;;;;9.32;4.70;;;9.40;88.40;;;;;;5014871;28;20022;-67
2023/04/26 03:41:47;;;;;;;10.43;5.30;;;9.40;88.50;;;;;;5014518;28;20041;-67
2023/04/26 03:44:14;;;;;;;11.10;4.95;;;9.40;88.40;;;;;;5014514;28;20044;-66
2023/04/26 03:46:39;;;;;;;10.80;5.32;;;9.40;88.10;;;;;;5014485;28;20029;-66
2023/04/26 03:49:05;;;;;;;7.70;5.28;;;9.30;88.20;;;;;;5014423;28;20060;-66
2023/04/26 03:51:31;;;;;;;9.52;6.03;;;9.30;88.30;;;;;;5014156;28;20018;-66
2023/04/26 03:53:58;;;;;;;11.48;6.45;;;9.40;88.30;;;;;;5014095;28;20050;-67
2023/04/26 03:56:23;;;;;;;9.15;5.00;;;9.30;88.30;;;;;;5014281;28;20026;-66
2023/04/26 03:58:49;;;;;;;13.32;5.75;;;9.30;88.30;;;;;;5014362;28;20075;-67
2023/04/26 04:01:15;;;;;;;13.60;5.43;;;9.30;88.50;;;;;;5014076;28;20017;-66
2023/04/26 04:03:41;;;;;;;8.90;5.72;;;9.30;88.80;;;;;;5013979;28;20499;-66
2023/04/26 04:06:06;;;;;;;11.27;6.40;;;9.20;88.40;;;;;;5013882;28;20042;-66
2023/04/26 04:08:32;;;;;;;10.88;6.00;;;9.20;88.50;;;;;;5013895;28;20026;-66
2023/04/26 04:10:58;;;;;;;8.32;5.78;;;9.20;88.40;;;;;;5013683;28;20054;-67
2023/04/26 04:13:24;;;;;;;11.57;6.28;;;9.20;88.20;;;;;;5014084;28;20108;-67
2023/04/26 04:15:50;;;;;;;12.50;6.20;;;9.20;88.80;;;;;;5013788;28;20030;-66
2023/04/26 04:18:16;;;;;;;10.93;6.43;;;9.20;88.70;;;;;;5013963;28;20038;-66
2023/04/26 04:20:41;;;;;;;16.83;7.88;;;9.20;88.90;;;;;;5013736;28;20022;-66
2023/04/26 04:23:07;;;;;;;8.90;6.72;;;9.20;89.00;;;;;;5013712;28;20034;-66
2023/04/26 04:25:33;;;;;;;12.73;8.55;;;9.20;89.00;;;;;;5013598;28;20034;-67
2023/04/26 04:28:00;;;;;;;12.13;7.10;;;9.20;88.80;;;;;;5013623;28;20025;-67
2023/04/26 04:30:28;;;;;;;11.90;7.82;;;9.00;89.00;;;;;;5013652;28;20377;-66
2023/04/26 04:32:54;;;;;;;13.70;8.00;;;8.70;90.00;;;;;;5013617;28;20030;-66
2023/04/26 04:35:21;;;;;;;11.55;8.07;;;8.60;90.10;;;;;;5013561;28;20029;-67
2023/04/26 04:37:48;;;;;;;12.55;7.53;;;8.40;90.50;;;;;;5013500;28;20135;-66
2023/04/26 04:40:14;;;;;;;12.57;7.95;;;8.30;90.70;;;;;;5012161;28;20109;-65
2023/04/26 04:42:43;;;;;;;10.68;7.43;;;8.20;91.00;;;;;;5013743;28;20108;-65
2023/04/26 04:45:09;;;;;;;12.25;8.02;;;8.10;91.20;;;;;;5013127;28;20093;-65
2023/04/26 04:47:36;;;;;;;11.25;8.30;;;8.10;91.50;;;;;;5012528;28;20072;-66
2023/04/26 04:50:06;;;;;;;15.18;7.30;;;8.10;91.60;;;;;;5013292;28;20049;-66
2023/04/26 04:52:32;;;;;;;10.48;7.00;;;8.10;91.50;;;;;;5013458;28;20526;-66
2023/04/26 04:54:58;;;;;;;12.57;7.55;;;8.00;91.80;;;;;;5011196;28;20097;-67
2023/04/26 04:57:24;;;;;;;11.50;7.97;;;8.20;92.10;;;;;;5001212;28;20045;-67
2023/04/26 04:59:50;;;;;;;15.25;8.55;;;8.30;91.80;;;;;;5005002;28;20022;-66
2023/04/26 05:02:15;;;;;;;14.93;9.45;;;8.50;91.60;;;;;;5012900;28;20026;-66
2023/04/26 05:04:41;;;;;;;14.68;9.52;;;8.60;91.40;;;;;;5009369;28;20030;-66
2023/04/26 05:07:07;;;;;;;15.52;10.00;;;8.60;91.30;;;;;;5009595;28;20411;-66
2023/04/26 05:09:32;;;;;;;13.35;9.00;;;8.70;91.20;;;;;;5010570;28;20049;-67
2023/04/26 05:11:58;;;;;;;13.07;9.35;;;8.70;91.20;;;;;;5009427;28;20036;-66
2023/04/26 05:14:23;;;;;;;14.40;9.68;;;8.80;91.10;;;;;;5007448;28;20052;-67
2023/04/26 05:16:49;;;;;;;13.98;9.25;;;8.80;91.10;;;;;;5006357;28;20390;-67
2023/04/26 05:19:15;;;;;;;16.35;9.90;;;8.80;91.30;;;;;;5005512;28;20026;-67
2023/04/26 05:21:40;;;;;;;12.75;9.77;;;8.80;91.10;;;;;;5001558;28;20034;-67
2023/04/26 05:24:06;;;;;;;19.08;9.70;;;8.90;91.10;;;;;;5011643;28;20430;-67
2023/04/26 05:26:34;;;;;;;17.38;10.13;;;8.90;91.10;;;;;;5010582;28;20269;-67
2023/04/26 05:29:00;;;;;;;18.75;11.20;;;8.90;91.00;;;;;;5005507;28;20045;-67
2023/04/26 05:31:25;;;;;;;28.08;17.23;;;8.90;90.90;;;;;;5012271;28;20463;-67
2023/04/26 05:33:52;;;;;;;32.60;19.42;;;8.90;91.00;;;;;;5010336;28;20018;-66
2023/04/26 05:36:18;;;;;;;31.35;18.67;;;8.90;91.00;;;;;;5005642;28;20026;-66
2023/04/26 05:38:44;;;;;;;26.65;16.17;;;8.90;91.10;;;;;;4995359;28;20038;-66
2023/04/26 05:41:09;;;;;;;22.20;12.70;;;8.90;91.00;;;;;;5015008;28;20105;-66
2023/04/26 05:43:36;;;;;;;18.60;11.10;;;8.90;91.20;;;;;;5014156;28;20022;-67
2023/04/26 05:46:01;;;;;;;18.90;9.70;;;8.90;91.30;;;;;;5015650;28;20430;-67
2023/04/26 05:48:28;;;;;;;23.25;10.30;;;9.00;91.20;;;;;;5009421;28;20532;-66
2023/04/26 05:50:54;;;;;;;12.43;7.82;;;9.00;91.20;;;;;;5016359;28;20021;-65
2023/04/26 05:53:20;;;;;;;19.67;10.98;;;9.00;91.50;;;;;;5012539;28;20576;-66
2023/04/26 05:55:46;;;;;;;18.67;12.13;;;9.00;91.20;;;;;;5018584;28;20026;-65
2023/04/26 05:58:11;;;;;;;19.27;11.02;;;9.00;91.70;;;;;;5015879;28;20022;-65
2023/04/26 06:00:37;;;;;;;15.23;10.00;;;9.00;91.50;;;;;;5020743;28;20064;-66
2023/04/26 06:03:03;;;;;;;14.38;9.00;;;9.10;91.40;;;;;;5016693;28;20045;-65
2023/04/26 06:05:30;;;;;;;13.35;8.07;;;9.10;91.40;;;;;;5013371;28;20112;-65
2023/04/26 06:07:56;;;;;;;16.38;7.80;;;9.10;91.50;;;;;;5013263;28;20029;-65
2023/04/26 06:10:22;;;;;;;14.40;6.50;;;9.10;91.20;;;;;;5012333;28;20026;-66
2023/04/26 06:12:48;;;;;;;11.80;7.47;;;9.20;90.90;;;;;;5012734;28;20030;-66
2023/04/26 06:15:14;;;;;;;13.13;7.05;;;9.20;90.80;;;;;;5018967;28;20084;-66
2023/04/26 06:17:40;;;;;;;15.27;6.55;;;9.30;90.80;;;;;;5012697;28;20033;-66
2023/04/26 06:20:08;;;;;;;11.15;6.68;;;9.30;90.80;;;;;;5007940;28;20041;-66
2023/04/26 06:22:34;;;;;;;12.52;7.32;;;9.30;91.10;;;;;;5014624;28;20033;-66
2023/04/26 06:25:00;;;;;;;16.85;7.50;;;9.30;91.00;;;;;;5014573;28;20040;-66
2023/04/26 06:27:26;;;;;;;12.88;7.38;;;9.30;91.00;;;;;;5015936;28;20042;-65
2023/04/26 06:29:51;;;;;;;17.60;8.48;;;9.40;91.10;;;;;;5015974;28;20467;-65
2023/04/26 06:32:17;;;;;;;12.90;7.25;;;9.40;91.50;;;;;;5015747;28;20498;-65
2023/04/26 06:34:44;;;;;;;13.32;7.60;;;9.40;91.20;;;;;;5015771;28;20037;-66
2023/04/26 06:37:10;;;;;;;16.73;8.65;;;9.40;91.00;;;;;;5015760;28;20040;-66
2023/04/26 06:39:37;;;;;;;16.42;8.68;;;9.50;91.10;;;;;;5015417;28;20029;-66
2023/04/26 06:42:06;;;;;;;16.77;8.15;;;9.50;91.10;;;;;;5015817;28;20498;-66
2023/04/26 06:44:32;;;;;;;18.38;8.80;;;9.50;91.10;;;;;;5015267;28;20084;-66
2023/04/26 06:46:58;;;;;;;15.18;8.73;;;9.50;91.10;;;;;;5015408;28;20526;-65
2023/04/26 06:49:23;;;;;;;15.77;8.40;;;9.50;91.20;;;;;;5014719;28;20498;-65
2023/04/26 06:51:51;;;;;;;15.90;8.68;;;9.60;91.30;;;;;;5013687;28;20030;-65
2023/04/26 06:54:17;;;;;;;13.77;8.07;;;9.60;91.40;;;;;;5014731;28;20057;-66
2023/04/26 06:56:43;;;;;;;16.20;8.70;;;9.60;91.50;;;;;;5015291;28;20062;-65
2023/04/26 06:59:08;;;;;;;14.70;9.52;;;9.60;91.60;;;;;;5014938;28;20053;-65
2023/04/26 07:01:34;;;;;;;19.63;10.02;;;9.70;91.60;;;;;;5014858;28;20040;-65
2023/04/26 07:04:02;;;;;;;16.73;9.80;;;9.70;91.70;;;;;;5014938;28;20018;-66
2023/04/26 07:06:28;;;;;;;18.30;9.27;;;9.70;91.50;;;;;;5015090;28;20120;-66
2023/04/26 07:08:53;;;;;;;15.23;10.27;;;9.80;91.40;;;;;;5015487;28;20398;-65
2023/04/26 07:11:19;;;;;;;15.23;9.13;;;9.80;91.20;;;;;;5015082;28;20562;-65
2023/04/26 07:13:45;;;;;;;15.10;10.23;;;9.90;91.20;;;;;;5014588;28;20014;-66
2023/04/26 07:16:11;;;;;;;14.65;8.68;;;9.90;91.30;;;;;;5014988;28;20071;-65
2023/04/26 07:18:37;;;;;;;16.15;9.68;;;9.90;91.40;;;;;;5015022;28;20501;-66
2023/04/26 07:21:03;;;;;;;14.48;9.45;;;10.00;91.00;;;;;;5015035;28;20029;-65
2023/04/26 07:23:28;;;;;;;14.05;9.55;;;10.00;90.90;;;;;;5014387;28;20022;-65
2023/04/26 07:25:54;;;;;;;15.98;8.80;;;10.00;90.90;;;;;;5014865;28;20072;-66
2023/04/26 07:28:20;;;;;;;17.75;9.65;;;10.00;91.00;;;;;;5014570;28;20113;-66
2023/04/26 07:30:45;;;;;;;17.60;9.23;;;10.10;91.10;;;;;;5013364;28;20414;-66
2023/04/26 07:33:11;;;;;;;15.23;10.00;;;10.10;91.20;;;;;;5013452;28;20014;-66
2023/04/26 07:35:37;;;;;;;16.92;8.43;;;10.10;91.10;;;;;;5014137;28;20030;-66
2023/04/26 07:38:03;;;;;;;13.90;7.28;;;10.20;91.10;;;;;;5014634;28;20068;-66
2023/04/26 07:40:30;;;;;;;17.40;8.32;;;10.20;90.90;;;;;;5014506;28;20032;-66
2023/04/26 07:42:55;;;;;;;14.98;8.68;;;10.30;90.90;;;;;;5014236;28;20033;-66
2023/04/26 07:45:21;;;;;;;16.80;7.88;;;10.30;91.00;;;;;;5014362;28;20014;-66
2023/04/26 07:47:47;;;;;;;18.45;8.93;;;10.30;90.80;;;;;;5014160;28;20067;-66
2023/04/26 07:50:12;;;;;;;13.25;8.23;;;10.40;90.70;;;;;;5014292;28;20090;-66
2023/04/26 07:52:38;;;;;;;13.88;9.10;;;10.40;90.50;;;;;;5014170;28;20030;-65
2023/04/26 07:55:04;;;;;;;15.05;8.32;;;10.40;90.50;;;;;;5014330;28;20440;-65
2023/04/26 07:57:30;;;;;;;12.50;7.90;;;10.50;90.70;;;;;;5014172;28;20029;-65
2023/04/26 07:59:56;;;;;;;12.65;7.18;;;10.50;90.50;;;;;;5014421;28;20030;-65
2023/04/26 08:02:22;;;;;;;16.73;9.00;;;10.50;90.40;;;;;;5013708;28;20021;-65
2023/04/26 08:04:49;;;;;;;18.88;8.18;;;10.50;90.30;;;;;;5014224;28;20040;-65
2023/04/26 08:07:15;;;;;;;13.10;7.18;;;10.60;90.50;;;;;;5013940;28;20034;-65
2023/04/26 08:09:41;;;;;;;14.65;8.75;;;10.60;90.20;;;;;;5013810;28;20434;-65
2023/04/26 08:12:07;;;;;;;14.70;7.13;;;10.60;90.30;;;;;;5013824;28;20018;-65
2023/04/26 08:14:34;;;;;;;10.57;6.82;;;10.70;90.30;;;;;;5013879;28;20053;-64
2023/04/26 08:17:00;;;;;;;9.40;5.43;;;10.70;90.10;;;;;;5014172;28;20071;-65
2023/04/26 08:19:29;;;;;;;11.43;4.68;;;10.70;89.60;;;;;;5013668;28;20022;-65
2023/04/26 08:21:55;;;;;;;7.90;4.60;;;10.70;89.20;;;;;;5014052;28;20034;-64
2023/04/26 08:24:21;;;;;;;12.55;4.93;;;10.80;88.30;;;;;;5014057;28;20045;-65
2023/04/26 08:26:47;;;;;;;9.40;5.07;;;10.80;88.10;;;;;;5013232;28;20057;-64
2023/04/26 08:29:13;;;;;;;10.38;4.20;;;10.90;88.40;;;;;;5014260;28;20375;-65
2023/04/26 08:31:39;;;;;;;11.55;5.10;;;10.90;88.20;;;;;;5013385;28;20081;-65
2023/04/26 08:34:05;;;;;;;7.05;3.80;;;11.00;88.10;;;;;;5013688;28;20380;-65
2023/04/26 08:36:34;;;;;;;11.68;4.78;;;11.00;85.90;;;;;;5013535;28;20134;-65
2023/04/26 08:39:00;;;;;;;10.60;4.00;;;11.10;86.10;;;;;;5013520;28;20493;-65
2023/04/26 08:41:27;;;;;;;7.35;3.97;;;11.10;86.00;;;;;;5013191;28;20022;-64
2023/04/26 08:43:57;;;;;;;9.38;4.53;;;11.10;86.60;;;;;;5013486;28;20518;-65
2023/04/26 08:46:25;;;;;;;7.88;3.83;;;11.20;85.60;;;;;;5013321;28;20037;-65
2023/04/26 08:49:07;;;;;;;9.68;4.35;;;11.20;85.90;;;;;;5013529;28;20048;-64
2023/04/26 08:51:33;;;;;;;7.78;4.25;;;11.30;86.10;;;;;;5013584;28;20022;-65
2023/04/26 08:54:00;;;;;;;8.23;4.03;;;11.30;85.00;;;;;;5011852;28;20391;-65
2023/04/26 08:56:27;;;;;;;9.15;4.53;;;11.30;85.30;;;;;;5013156;28;20029;-64
2023/04/26 08:58:53;;;;;;;9.68;4.35;;;11.40;86.00;;;;;;5013233;28;20029;-65
2023/04/26 09:01:20;;;;;;;8.05;4.55;;;11.40;84.50;;;;;;5013079;28;20057;-65
2023/04/26 09:03:46;;;;;;;11.70;5.85;;;11.50;84.30;;;;;;5013282;28;20026;-64
2023/04/26 09:06:13;;;;;;;12.20;5.68;;;11.50;84.30;;;;;;5013462;28;20077;-65
2023/04/26 09:08:40;;;;;;;11.70;5.85;;;11.50;84.30;;;;;;5012869;28;20096;-65
2023/04/26 09:11:06;;;;;;;11.00;5.10;;;11.60;84.60;;;;;;5011636;28;20026;-65
2023/04/26 09:13:31;;;;;;;11.90;4.35;;;11.60;85.00;;;;;;5012375;28;20045;-64
2023/04/26 09:15:57;;;;;;;9.27;4.50;;;11.70;84.90;;;;;;5013009;28;20053;-65
2023/04/26 09:18:23;;;;;;;11.88;4.20;;;11.70;84.00;;;;;;5013226;28;20379;-65
2023/04/26 09:21:21;;;;;;;12.45;4.07;;;11.70;83.40;;;;;;5012835;28;20022;-65
2023/04/26 09:24:03;;;;;;;8.50;4.75;;;11.80;82.40;;;;;;4969724;28;20237;-64
2023/04/26 09:26:28;;;;;;;10.02;3.65;;;11.80;81.30;;;;;;5012922;28;20026;-65
2023/04/26 09:29:17;;;;;;;7.28;3.80;;;11.80;81.10;;;;;;5012957;28;20064;-65
2023/04/26 09:31:44;;;;;;;10.77;4.30;;;11.90;81.90;;;;;;5012901;28;20037;-65
2023/04/26 09:34:11;;;;;;;10.75;3.90;;;11.90;81.90;;;;;;5012856;28;20010;-65
2023/04/26 09:36:55;;;;;;;7.38;4.10;;;11.90;82.50;;;;;;5012039;28;20517;-65
2023/04/26 09:39:32;;;;;;;8.00;3.83;;;12.00;82.80;;;;;;5012830;28;20022;-65
2023/04/26 09:41:58;;;;;;;9.25;4.35;;;12.00;82.70;;;;;;5012620;28;20054;-65
2023/04/26 09:44:24;;;;;;;11.15;4.00;;;12.00;82.00;;;;;;5013023;28;20061;-65
2023/04/26 09:46:57;;;;;;;13.70;3.88;;;12.10;81.60;;;;;;5011213;28;20041;-65
2023/04/26 09:49:25;;;;;;;6.40;3.83;;;12.20;82.00;;;;;;5013123;28;20029;-65
2023/04/26 09:52:06;;;;;;;7.82;4.43;;;12.20;82.40;;;;;;5012360;28;20061;-65
2023/04/26 09:54:52;;;;;;;10.88;4.85;;;12.20;81.00;;;;;;5012869;28;20018;-65
2023/04/26 09:57:19;;;;;;;9.82;4.63;;;12.20;80.90;;;;;;5012739;28;20040;-65
2023/04/26 09:59:49;;;;;;;12.20;5.13;;;12.30;80.20;;;;;;5012627;28;20088;-64
2023/04/26 10:02:18;;;;;;;9.88;4.68;;;12.30;79.80;;;;;;5012621;28;20030;-65
2023/04/26 10:04:46;;;;;;;10.60;3.92;;;12.30;80.20;;;;;;5012544;28;20026;-64
2023/04/26 10:07:13;;;;;;;9.95;4.40;;;12.40;79.70;;;;;;5012188;28;20034;-65
2023/04/26 10:09:40;;;;;;;9.35;4.20;;;12.40;81.40;;;;;;5012353;28;20089;-64
2023/04/26 10:12:07;;;;;;;9.38;4.15;;;12.40;81.80;;;;;;5012273;28;20479;-66
2023/04/26 10:14:34;;;;;;;7.97;4.22;;;12.40;81.70;;;;;;5010443;28;20038;-65
2023/04/26 10:17:02;;;;;;;7.10;3.70;;;12.50;82.50;;;;;;5011011;28;20029;-64
2023/04/26 10:19:29;;;;;;;6.60;3.88;;;12.50;82.20;;;;;;5021196;28;20030;-65
2023/04/26 10:21:59;;;;;;;7.50;4.68;;;12.50;81.40;;;;;;5012086;28;20029;-63
2023/04/26 10:24:25;;;;;;;6.80;3.92;;;12.60;80.40;;;;;;5011600;28;20474;-64
2023/04/26 10:26:56;;;;;;;4.75;2.20;;;12.60;81.40;;;;;;5011805;28;20034;-65
2023/04/26 10:29:22;;;;;;;9.80;4.13;;;12.70;85.70;;;;;;5011683;28;20041;-65
2023/04/26 10:32:00;;;;;;;7.43;4.18;;;12.70;81.50;;;;;;5013124;28;20060;-64
2023/04/26 10:34:26;;;;;;;16.45;5.20;;;12.70;81.40;;;;;;5015600;28;20100;-65
2023/04/26 10:37:17;;;;;;;11.85;5.10;;;12.70;80.10;;;;;;5015289;28;20132;-65
2023/04/26 10:39:45;;;;;;;9.23;5.13;;;12.80;80.40;;;;;;5015604;28;20033;-65
2023/04/26 10:42:29;;;;;;;10.18;4.82;;;12.80;79.20;;;;;;5015765;28;20026;-65
2023/04/26 10:45:25;;;;;;;10.18;4.18;;;12.80;80.00;;;;;;5015508;28;20034;-66
2023/04/26 10:48:13;;;;;;;10.32;4.38;;;12.90;79.50;;;;;;4995782;28;20034;-65
2023/04/26 10:50:59;;;;;;;11.00;5.20;;;12.90;81.30;;;;;;5014249;28;20026;-66
2023/04/26 10:53:32;;;;;;;13.70;5.65;;;12.90;78.70;;;;;;5015243;28;20029;-65
2023/04/26 10:55:57;;;;;;;9.73;5.07;;;12.90;77.10;;;;;;5015389;28;20030;-65
2023/04/26 10:58:31;;;;;;;9.80;5.10;;;12.90;76.90;;;;;;5015340;28;20022;-65
2023/04/26 11:01:19;;;;;;;12.95;5.47;;;12.90;77.90;;;;;;5015668;28;20049;-64
2023/04/26 11:04:07;;;;;;;14.48;6.13;;;13.00;80.70;;;;;;5015232;28;20105;-65
2023/04/26 11:06:51;;;;;;;15.88;6.20;;;13.00;80.90;;;;;;5013394;28;20038;-64
2023/04/26 11:09:39;;;;;;;14.30;5.18;;;13.00;81.50;;;;;;5014516;28;20025;-65
2023/04/26 11:12:10;;;;;;;13.13;5.63;;;13.10;80.30;;;;;;5013807;28;20391;-64
2023/04/26 11:14:35;;;;;;;12.70;5.95;;;13.10;79.90;;;;;;5015346;28;20026;-65
2023/04/26 11:17:05;;;;;;;12.65;5.82;;;13.10;79.80;;;;;;5020667;28;20076;-64
2023/04/26 11:19:31;;;;;;;9.40;6.60;;;13.20;78.20;;;;;;5020326;28;21327;-65
2023/04/26 11:22:01;;;;;;;11.32;6.22;;;13.20;77.70;;;;;;5013240;28;20555;-64
2023/04/26 11:24:31;;;;;;;9.90;6.07;;;13.20;78.80;;;;;;5013263;28;20026;-65
2023/04/26 11:26:57;;;;;;;8.50;6.10;;;13.30;78.50;;;;;;5012330;28;20072;-66
2023/04/26 11:29:24;;;;;;;16.98;6.40;;;13.30;79.40;;;;;;5013871;28;20515;-66
2023/04/26 11:31:54;;;;;;;10.63;5.60;;;13.30;83.80;;;;;;5014724;28;20403;-66
2023/04/26 11:34:40;;;;;;;10.57;6.45;;;13.40;79.50;;;;;;5010909;28;20033;-66
2023/04/26 11:37:06;;;;;;;12.52;6.25;;;13.40;83.50;;;;;;5012654;28;20099;-67
2023/04/26 11:39:36;;;;;;;11.82;6.35;;;13.40;82.50;;;;;;5012936;28;20029;-66
2023/04/26 11:42:09;;;;;;;9.95;6.00;;;13.50;79.40;;;;;;5009683;28;20061;-67
2023/04/26 11:44:37;;;;;;;17.95;6.85;;;13.50;80.00;;;;;;5012135;28;20484;-67
2023/04/26 11:47:05;;;;;;;14.20;6.13;;;13.50;75.70;;;;;;5009081;28;20030;-66
2023/04/26 11:49:31;;;;;;;13.32;6.45;;;13.50;78.30;;;;;;4994068;28;20014;-66
2023/04/26 11:51:57;;;;;;;7.97;5.75;;;13.50;77.40;;;;;;5004708;28;20065;-66
2023/04/26 11:54:43;;;;;;;9.00;6.10;;;13.60;75.00;;;;;;5018674;28;20104;-67
2023/04/26 11:57:16;;;;;;;11.82;6.25;;;13.60;75.00;;;;;;5010149;28;20109;-66
2023/04/26 11:59:42;;;;;;;10.80;6.70;;;13.60;75.20;;;;;;5010919;28;20026;-65
2023/04/26 12:02:08;;;;;;;8.55;5.93;;;13.60;73.70;;;;;;5012029;28;20391;-68
2023/04/26 12:04:34;;;;;;;9.10;6.13;;;13.60;75.90;;;;;;5013738;28;20065;-66
2023/04/26 12:07:03;;;;;;;10.90;6.95;;;13.70;74.80;;;;;;5008996;28;20076;-68
2023/04/26 12:09:30;;;;;;;10.35;7.07;;;13.70;73.60;;;;;;5011201;28;20022;-66
2023/04/26 12:11:59;;;;;;;15.98;7.43;;;13.70;73.80;;;;;;5013742;28;20026;-66
2023/04/26 12:14:31;;;;;;;11.05;6.70;;;13.70;73.90;;;;;;5012694;28;20032;-66
2023/04/26 12:17:01;;;;;;;10.13;7.60;;;13.80;76.60;;;;;;5013350;28;20034;-67
2023/04/26 12:19:27;;;;;;;9.80;6.40;;;13.80;74.10;;;;;;5012164;28;20025;-66
2023/04/26 12:21:54;;;;;;;12.65;6.22;;;13.80;74.80;;;;;;5013313;28;20026;-66
2023/04/26 12:24:25;;;;;;;12.70;7.13;;;13.80;76.10;;;;;;5013057;28;20033;-66
2023/04/26 12:26:51;;;;;;;13.68;9.73;;;13.80;75.20;;;;;;5012740;28;20099;-66
2023/04/26 12:29:17;;;;;;;10.13;6.88;;;13.90;74.20;;;;;;5011829;28;20057;-66
2023/04/26 12:31:43;;;;;;;11.85;8.02;;;13.90;74.10;;;;;;5011834;28;20050;-66
2023/04/26 12:34:08;;;;;;;13.73;7.70;;;13.90;72.80;;;;;;5012681;28;20487;-68
2023/04/26 12:36:34;;;;;;;11.93;8.05;;;13.90;73.00;;;;;;5010087;28;20046;-68
2023/04/26 12:39:02;;;;;;;10.88;7.93;;;13.90;71.40;;;;;;5011403;28;20137;-67
2023/04/26 12:41:28;;;;;;;13.45;7.78;;;13.90;73.30;;;;;;5013016;28;20022;-67
2023/04/26 12:43:53;;;;;;;9.85;7.78;;;13.90;73.40;;;;;;5013098;28;20096;-68
2023/04/26 12:46:19;;;;;;;11.05;8.18;;;13.90;72.50;;;;;;5012289;28;20068;-68
2023/04/26 12:48:45;;;;;;;13.40;8.82;;;14.00;71.90;;;;;;5012825;28;20450;-67